sensor_id;sensor_type;location;lat;lon;timestamp;temperature;humidity
51853;DHT22;37894;53.172;6.598;2023-03-05T00:02:09;3.60;99.90
51853;DHT22;37894;53.172;6.598;2023-03-05T00:04:35;3.60;99.90
51853;DHT22;37894;53.172;6.598;2023-03-05T00:07:01;3.50;99.90
51853;DHT22;37894;53.172;6.598;2023-03-05T00:09:26;3.40;99.90
51853;DHT22;37894;53.172;6.598;2023-03-05T00:11:52;3.30;99.90
51853;DHT22;37894;53.172;6.598;2023-03-05T00:14:18;3.20;99.90
51853;DHT22;37894;53.172;6.598;2023-03-05T00:16:43;4.10;99.90
51853;DHT22;37894;53.172;6.598;2023-03-05T00:19:10;3.40;99.90
51853;DHT22;37894;53.172;6.598;2023-03-05T00:21:38;3.30;99.90
51853;DHT22;37894;53.172;6.598;2023-03-05T00:24:06;3.00;99.90
51853;DHT22;37894;53.172;6.598;2023-03-05T00:26:35;2.90;99.90
51853;DHT22;37894;53.172;6.598;2023-03-05T00:29:02;2.60;99.90
51853;DHT22;37894;53.172;6.598;2023-03-05T00:31:30;3.00;99.90
51853;DHT22;37894;53.172;6.598;2023-03-05T00:34:02;3.30;99.90
51853;DHT22;37894;53.172;6.598;2023-03-05T00:36:28;3.40;99.90
51853;DHT22;37894;53.172;6.598;2023-03-05T00:41:20;4.00;99.90
51853;DHT22;37894;53.172;6.598;2023-03-05T00:43:47;3.30;99.90
51853;DHT22;37894;53.172;6.598;2023-03-05T00:46:13;2.90;99.90
51853;DHT22;37894;53.172;6.598;2023-03-05T00:48:39;2.70;99.90
51853;DHT22;37894;53.172;6.598;2023-03-05T00:51:05;3.50;99.90
51853;DHT22;37894;53.172;6.598;2023-03-05T00:53:30;3.60;99.90
51853;DHT22;37894;53.172;6.598;2023-03-05T00:55:57;3.50;99.90
51853;DHT22;37894;53.172;6.598;2023-03-05T01:00:49;4.30;99.90
51853;DHT22;37894;53.172;6.598;2023-03-05T01:03:16;3.50;99.90
51853;DHT22;37894;53.172;6.598;2023-03-05T01:05:42;3.30;99.90
51853;DHT22;37894;53.172;6.598;2023-03-05T01:08:08;3.40;99.90
51853;DHT22;37894;53.172;6.598;2023-03-05T01:10:34;4.00;99.90
51853;DHT22;37894;53.172;6.598;2023-03-05T01:13:00;2.90;99.90
51853;DHT22;37894;53.172;6.598;2023-03-05T01:15:26;2.70;99.90
51853;DHT22;37894;53.172;6.598;2023-03-05T01:17:51;3.50;99.90
51853;DHT22;37894;53.172;6.598;2023-03-05T01:20:20;3.30;99.90
51853;DHT22;37894;53.172;6.598;2023-03-05T01:25:13;2.70;99.90
51853;DHT22;37894;53.172;6.598;2023-03-05T01:30:06;3.00;99.90
51853;DHT22;37894;53.172;6.598;2023-03-05T01:32:33;3.20;99.90
51853;DHT22;37894;53.172;6.598;2023-03-05T01:35:00;3.50;99.90
51853;DHT22;37894;53.172;6.598;2023-03-05T01:37:26;3.20;99.90
51853;DHT22;37894;53.172;6.598;2023-03-05T01:39:52;3.10;99.90
51853;DHT22;37894;53.172;6.598;2023-03-05T01:42:18;3.70;99.90
51853;DHT22;37894;53.172;6.598;2023-03-05T01:47:35;4.30;99.90
51853;DHT22;37894;53.172;6.598;2023-03-05T01:50:02;3.20;99.90
51853;DHT22;37894;53.172;6.598;2023-03-05T01:52:30;3.10;99.90
51853;DHT22;37894;53.172;6.598;2023-03-05T01:55:04;3.10;99.90
51853;DHT22;37894;53.172;6.598;2023-03-05T01:57:45;3.20;99.90
51853;DHT22;37894;53.172;6.598;2023-03-05T02:00:17;3.00;99.90
51853;DHT22;37894;53.172;6.598;2023-03-05T02:02:47;3.50;99.90
51853;DHT22;37894;53.172;6.598;2023-03-05T02:05:18;3.00;99.90
51853;DHT22;37894;53.172;6.598;2023-03-05T02:07:44;2.60;99.90
51853;DHT22;37894;53.172;6.598;2023-03-05T02:10:22;2.60;99.90
51853;DHT22;37894;53.172;6.598;2023-03-05T02:12:49;2.70;99.90
51853;DHT22;37894;53.172;6.598;2023-03-05T02:15:16;4.00;99.90
51853;DHT22;37894;53.172;6.598;2023-03-05T02:20:18;2.40;99.90
51853;DHT22;37894;53.172;6.598;2023-03-05T02:25:25;3.10;99.90
51853;DHT22;37894;53.172;6.598;2023-03-05T02:28:07;2.40;99.90
51853;DHT22;37894;53.172;6.598;2023-03-05T02:30:33;3.00;99.90
51853;DHT22;37894;53.172;6.598;2023-03-05T02:35:26;2.60;99.90
51853;DHT22;37894;53.172;6.598;2023-03-05T02:37:51;2.70;99.90
51853;DHT22;37894;53.172;6.598;2023-03-05T02:40:17;2.90;99.90
51853;DHT22;37894;53.172;6.598;2023-03-05T02:42:43;2.70;99.90
51853;DHT22;37894;53.172;6.598;2023-03-05T02:45:10;2.90;99.90
51853;DHT22;37894;53.172;6.598;2023-03-05T02:47:36;2.70;99.90
51853;DHT22;37894;53.172;6.598;2023-03-05T02:50:02;2.90;99.90
51853;DHT22;37894;53.172;6.598;2023-03-05T02:52:28;2.80;99.90
51853;DHT22;37894;53.172;6.598;2023-03-05T02:57:22;2.10;99.90
51853;DHT22;37894;53.172;6.598;2023-03-05T02:59:47;3.00;99.90
51853;DHT22;37894;53.172;6.598;2023-03-05T03:02:13;2.90;99.90
51853;DHT22;37894;53.172;6.598;2023-03-05T03:04:39;1.90;99.90
51853;DHT22;37894;53.172;6.598;2023-03-05T03:07:05;2.90;99.90
51853;DHT22;37894;53.172;6.598;2023-03-05T03:09:33;3.70;99.90
51853;DHT22;37894;53.172;6.598;2023-03-05T03:11:59;2.50;99.90
51853;DHT22;37894;53.172;6.598;2023-03-05T03:16:51;2.70;99.90
51853;DHT22;37894;53.172;6.598;2023-03-05T03:19:17;3.00;99.90
51853;DHT22;37894;53.172;6.598;2023-03-05T03:21:43;2.90;99.90
51853;DHT22;37894;53.172;6.598;2023-03-05T03:24:08;2.30;99.90
51853;DHT22;37894;53.172;6.598;2023-03-05T03:26:34;3.00;99.90
51853;DHT22;37894;53.172;6.598;2023-03-05T03:28:59;3.00;99.90
51853;DHT22;37894;53.172;6.598;2023-03-05T03:31:25;2.70;99.90
51853;DHT22;37894;53.172;6.598;2023-03-05T03:33:51;3.10;99.90
51853;DHT22;37894;53.172;6.598;2023-03-05T03:36:17;2.80;99.90
51853;DHT22;37894;53.172;6.598;2023-03-05T03:43:35;3.10;99.90
51853;DHT22;37894;53.172;6.598;2023-03-05T03:46:04;2.10;99.90
51853;DHT22;37894;53.172;6.598;2023-03-05T03:48:30;2.90;99.90
51853;DHT22;37894;53.172;6.598;2023-03-05T03:50:56;2.10;99.90
51853;DHT22;37894;53.172;6.598;2023-03-05T03:53:22;2.40;99.90
51853;DHT22;37894;53.172;6.598;2023-03-05T03:55:47;2.70;99.90
51853;DHT22;37894;53.172;6.598;2023-03-05T03:58:13;2.70;99.90
51853;DHT22;37894;53.172;6.598;2023-03-05T04:00:40;2.00;99.90
51853;DHT22;37894;53.172;6.598;2023-03-05T04:03:06;2.60;99.90
51853;DHT22;37894;53.172;6.598;2023-03-05T04:05:32;2.50;99.90
51853;DHT22;37894;53.172;6.598;2023-03-05T04:10:25;2.70;99.90
51853;DHT22;37894;53.172;6.598;2023-03-05T04:12:51;3.10;99.90
51853;DHT22;37894;53.172;6.598;2023-03-05T04:17:43;2.60;99.90
51853;DHT22;37894;53.172;6.598;2023-03-05T04:20:09;2.20;99.90
51853;DHT22;37894;53.172;6.598;2023-03-05T04:22:36;2.30;99.90
51853;DHT22;37894;53.172;6.598;2023-03-05T04:25:03;2.40;99.90
51853;DHT22;37894;53.172;6.598;2023-03-05T04:27:32;2.20;99.90
51853;DHT22;37894;53.172;6.598;2023-03-05T04:29:59;2.00;99.90
51853;DHT22;37894;53.172;6.598;2023-03-05T04:32:25;2.50;99.90
51853;DHT22;37894;53.172;6.598;2023-03-05T04:37:17;2.00;99.90
51853;DHT22;37894;53.172;6.598;2023-03-05T04:39:42;2.40;99.90
51853;DHT22;37894;53.172;6.598;2023-03-05T04:42:08;2.40;99.90
51853;DHT22;37894;53.172;6.598;2023-03-05T04:44:35;2.30;99.90
51853;DHT22;37894;53.172;6.598;2023-03-05T04:47:01;2.30;99.90
51853;DHT22;37894;53.172;6.598;2023-03-05T04:51:52;2.30;99.90
51853;DHT22;37894;53.172;6.598;2023-03-05T04:54:18;2.60;99.90
51853;DHT22;37894;53.172;6.598;2023-03-05T04:56:44;2.60;99.90
51853;DHT22;37894;53.172;6.598;2023-03-05T04:59:09;2.60;99.90
51853;DHT22;37894;53.172;6.598;2023-03-05T05:01:35;2.70;99.90
51853;DHT22;37894;53.172;6.598;2023-03-05T05:04:01;2.40;99.90
51853;DHT22;37894;53.172;6.598;2023-03-05T05:08:53;2.10;99.90
51853;DHT22;37894;53.172;6.598;2023-03-05T05:16:11;2.40;99.90
51853;DHT22;37894;53.172;6.598;2023-03-05T05:18:37;2.80;99.90
51853;DHT22;37894;53.172;6.598;2023-03-05T05:21:07;2.50;99.90
51853;DHT22;37894;53.172;6.598;2023-03-05T05:23:33;2.80;99.90
51853;DHT22;37894;53.172;6.598;2023-03-05T05:26:01;2.60;99.90
51853;DHT22;37894;53.172;6.598;2023-03-05T05:28:27;2.80;99.90
51853;DHT22;37894;53.172;6.598;2023-03-05T05:30:53;2.80;99.90
51853;DHT22;37894;53.172;6.598;2023-03-05T05:33:20;2.70;99.90
51853;DHT22;37894;53.172;6.598;2023-03-05T05:35:45;2.50;99.90
51853;DHT22;37894;53.172;6.598;2023-03-05T05:38:11;2.20;99.90
51853;DHT22;37894;53.172;6.598;2023-03-05T05:40:37;2.80;99.90
51853;DHT22;37894;53.172;6.598;2023-03-05T05:43:03;2.70;99.90
51853;DHT22;37894;53.172;6.598;2023-03-05T05:47:55;2.30;99.90
51853;DHT22;37894;53.172;6.598;2023-03-05T05:50:21;3.40;99.90
51853;DHT22;37894;53.172;6.598;2023-03-05T05:52:46;2.60;99.90
51853;DHT22;37894;53.172;6.598;2023-03-05T05:57:38;2.10;99.90
51853;DHT22;37894;53.172;6.598;2023-03-05T06:00:07;2.00;99.90
51853;DHT22;37894;53.172;6.598;2023-03-05T06:02:37;2.30;99.90
51853;DHT22;37894;53.172;6.598;2023-03-05T06:05:04;1.50;99.90
51853;DHT22;37894;53.172;6.598;2023-03-05T06:07:29;2.50;99.90
51853;DHT22;37894;53.172;6.598;2023-03-05T06:09:56;2.00;99.90
51853;DHT22;37894;53.172;6.598;2023-03-05T06:12:21;2.00;99.90
51853;DHT22;37894;53.172;6.598;2023-03-05T06:14:47;2.30;99.90
51853;DHT22;37894;53.172;6.598;2023-03-05T06:17:13;2.30;99.90
51853;DHT22;37894;53.172;6.598;2023-03-05T06:19:39;2.10;99.90
51853;DHT22;37894;53.172;6.598;2023-03-05T06:22:04;2.60;99.90
51853;DHT22;37894;53.172;6.598;2023-03-05T06:24:30;1.80;99.90
51853;DHT22;37894;53.172;6.598;2023-03-05T06:26:56;2.30;99.90
51853;DHT22;37894;53.172;6.598;2023-03-05T06:31:47;2.20;99.90
51853;DHT22;37894;53.172;6.598;2023-03-05T06:34:13;2.10;99.90
51853;DHT22;37894;53.172;6.598;2023-03-05T06:36:39;2.00;99.90
51853;DHT22;37894;53.172;6.598;2023-03-05T06:39:05;2.20;99.90
51853;DHT22;37894;53.172;6.598;2023-03-05T06:43:59;2.30;99.90
51853;DHT22;37894;53.172;6.598;2023-03-05T06:46:32;2.00;99.90
51853;DHT22;37894;53.172;6.598;2023-03-05T06:49:00;1.80;99.90
51853;DHT22;37894;53.172;6.598;2023-03-05T06:51:31;1.40;99.90
51853;DHT22;37894;53.172;6.598;2023-03-05T06:54:05;2.20;99.90
51853;DHT22;37894;53.172;6.598;2023-03-05T07:01:23;2.10;99.90
51853;DHT22;37894;53.172;6.598;2023-03-05T07:03:50;2.20;99.90
51853;DHT22;37894;53.172;6.598;2023-03-05T07:06:17;2.50;99.90
51853;DHT22;37894;53.172;6.598;2023-03-05T07:08:43;2.50;99.90
51853;DHT22;37894;53.172;6.598;2023-03-05T07:11:17;2.50;99.90
51853;DHT22;37894;53.172;6.598;2023-03-05T07:13:44;2.30;99.90
51853;DHT22;37894;53.172;6.598;2023-03-05T07:16:21;2.10;99.90
51853;DHT22;37894;53.172;6.598;2023-03-05T07:18:47;3.70;99.90
51853;DHT22;37894;53.172;6.598;2023-03-05T07:21:22;1.80;99.90
51853;DHT22;37894;53.172;6.598;2023-03-05T07:23:49;2.80;99.90
51853;DHT22;37894;53.172;6.598;2023-03-05T07:26:15;2.70;99.90
51853;DHT22;37894;53.172;6.598;2023-03-05T07:31:11;2.00;99.90
51853;DHT22;37894;53.172;6.598;2023-03-05T07:33:37;3.00;99.90
51853;DHT22;37894;53.172;6.598;2023-03-05T07:36:06;3.00;99.90
51853;DHT22;37894;53.172;6.598;2023-03-05T07:41:03;3.10;99.90
51853;DHT22;37894;53.172;6.598;2023-03-05T07:43:29;2.90;99.90
51853;DHT22;37894;53.172;6.598;2023-03-05T07:48:23;2.60;99.90
51853;DHT22;37894;53.172;6.598;2023-03-05T07:50:49;2.40;99.90
51853;DHT22;37894;53.172;6.598;2023-03-05T07:53:15;3.30;99.90
51853;DHT22;37894;53.172;6.598;2023-03-05T07:55:45;3.30;99.90
51853;DHT22;37894;53.172;6.598;2023-03-05T07:58:12;3.30;99.90
51853;DHT22;37894;53.172;6.598;2023-03-05T08:00:39;4.70;99.90
51853;DHT22;37894;53.172;6.598;2023-03-05T08:03:05;3.70;99.90
51853;DHT22;37894;53.172;6.598;2023-03-05T08:07:57;3.70;99.90
51853;DHT22;37894;53.172;6.598;2023-03-05T08:10:23;3.80;99.90
51853;DHT22;37894;53.172;6.598;2023-03-05T08:12:49;4.00;99.90
51853;DHT22;37894;53.172;6.598;2023-03-05T08:17:41;3.90;99.90
51853;DHT22;37894;53.172;6.598;2023-03-05T08:20:07;3.90;99.90
51853;DHT22;37894;53.172;6.598;2023-03-05T08:22:38;4.10;99.90
51853;DHT22;37894;53.172;6.598;2023-03-05T08:25:05;3.70;99.90
51853;DHT22;37894;53.172;6.598;2023-03-05T08:27:31;4.20;99.90
51853;DHT22;37894;53.172;6.598;2023-03-05T08:29:56;4.00;99.90
51853;DHT22;37894;53.172;6.598;2023-03-05T08:32:22;4.20;99.90
51853;DHT22;37894;53.172;6.598;2023-03-05T08:37:14;4.10;99.90
51853;DHT22;37894;53.172;6.598;2023-03-05T08:42:06;4.30;99.90
51853;DHT22;37894;53.172;6.598;2023-03-05T08:44:32;4.50;99.90
51853;DHT22;37894;53.172;6.598;2023-03-05T08:46:58;3.70;99.90
51853;DHT22;37894;53.172;6.598;2023-03-05T08:49:24;4.30;99.90
51853;DHT22;37894;53.172;6.598;2023-03-05T08:54:15;4.20;99.90
51853;DHT22;37894;53.172;6.598;2023-03-05T08:56:41;4.40;99.90
51853;DHT22;37894;53.172;6.598;2023-03-05T09:01:33;4.80;99.90
51853;DHT22;37894;53.172;6.598;2023-03-05T09:03:59;4.80;99.90
51853;DHT22;37894;53.172;6.598;2023-03-05T09:08:51;5.80;99.90
51853;DHT22;37894;53.172;6.598;2023-03-05T09:13:43;5.20;99.90
51853;DHT22;37894;53.172;6.598;2023-03-05T09:16:14;5.00;99.90
51853;DHT22;37894;53.172;6.598;2023-03-05T09:18:41;5.40;99.90
51853;DHT22;37894;53.172;6.598;2023-03-05T09:21:12;5.40;99.90
51853;DHT22;37894;53.172;6.598;2023-03-05T09:23:39;4.90;99.90
51853;DHT22;37894;53.172;6.598;2023-03-05T09:26:06;5.70;99.90
51853;DHT22;37894;53.172;6.598;2023-03-05T09:28:32;5.10;99.90
51853;DHT22;37894;53.172;6.598;2023-03-05T09:31:01;5.10;99.90
51853;DHT22;37894;53.172;6.598;2023-03-05T09:35:54;4.80;99.90
51853;DHT22;37894;53.172;6.598;2023-03-05T09:38:20;5.00;99.90
51853;DHT22;37894;53.172;6.598;2023-03-05T09:46:32;4.20;99.90
51853;DHT22;37894;53.172;6.598;2023-03-05T09:52:14;5.80;99.90
51853;DHT22;37894;53.172;6.598;2023-03-05T09:54:44;4.60;99.90
51853;DHT22;37894;53.172;6.598;2023-03-05T09:57:21;5.30;99.90
51853;DHT22;37894;53.172;6.598;2023-03-05T09:59:53;4.60;99.90
51853;DHT22;37894;53.172;6.598;2023-03-05T10:02:36;6.30;99.90
51853;DHT22;37894;53.172;6.598;2023-03-05T10:05:28;5.50;99.90
51853;DHT22;37894;53.172;6.598;2023-03-05T10:08:04;5.60;99.90
51853;DHT22;37894;53.172;6.598;2023-03-05T10:10:40;5.60;99.90
51853;DHT22;37894;53.172;6.598;2023-03-05T10:13:15;5.90;99.90
51853;DHT22;37894;53.172;6.598;2023-03-05T10:16:27;5.90;99.90
51853;DHT22;37894;53.172;6.598;2023-03-05T10:24:24;6.40;99.90
51853;DHT22;37894;53.172;6.598;2023-03-05T10:27:07;6.20;99.90
51853;DHT22;37894;53.172;6.598;2023-03-05T10:29:54;6.50;99.90
51853;DHT22;37894;53.172;6.598;2023-03-05T10:32:43;5.80;99.90
51853;DHT22;37894;53.172;6.598;2023-03-05T10:40:54;6.90;99.90
51853;DHT22;37894;53.172;6.598;2023-03-05T10:46:14;7.80;99.90
51853;DHT22;37894;53.172;6.598;2023-03-05T10:54:16;7.30;99.90
51853;DHT22;37894;53.172;6.598;2023-03-05T10:56:43;7.00;99.90
51853;DHT22;37894;53.172;6.598;2023-03-05T10:59:09;6.50;99.90
51853;DHT22;37894;53.172;6.598;2023-03-05T11:01:35;6.90;99.90
51853;DHT22;37894;53.172;6.598;2023-03-05T11:04:02;7.30;99.90
51853;DHT22;37894;53.172;6.598;2023-03-05T11:06:42;7.40;99.90
51853;DHT22;37894;53.172;6.598;2023-03-05T11:09:23;7.50;99.90
51853;DHT22;37894;53.172;6.598;2023-03-05T11:12:18;8.00;99.90
51853;DHT22;37894;53.172;6.598;2023-03-05T11:17:41;8.10;99.90
51853;DHT22;37894;53.172;6.598;2023-03-05T11:25:29;9.00;99.90
51853;DHT22;37894;53.172;6.598;2023-03-05T11:27:57;9.10;99.90
51853;DHT22;37894;53.172;6.598;2023-03-05T11:30:31;9.10;99.90
51853;DHT22;37894;53.172;6.598;2023-03-05T11:33:18;8.90;99.90
51853;DHT22;37894;53.172;6.598;2023-03-05T11:35:46;10.10;99.90
51853;DHT22;37894;53.172;6.598;2023-03-05T11:38:17;9.30;99.90
51853;DHT22;37894;53.172;6.598;2023-03-05T11:43:17;9.50;99.90
51853;DHT22;37894;53.172;6.598;2023-03-05T11:45:44;9.40;99.90
51853;DHT22;37894;53.172;6.598;2023-03-05T11:48:19;9.30;99.90
51853;DHT22;37894;53.172;6.598;2023-03-05T11:50:50;9.20;99.90
51853;DHT22;37894;53.172;6.598;2023-03-05T11:53:24;8.80;99.90
51853;DHT22;37894;53.172;6.598;2023-03-05T11:55:55;8.90;99.90
51853;DHT22;37894;53.172;6.598;2023-03-05T11:58:36;8.90;99.90
51853;DHT22;37894;53.172;6.598;2023-03-05T12:01:21;9.20;99.90
51853;DHT22;37894;53.172;6.598;2023-03-05T12:03:47;9.20;99.90
51853;DHT22;37894;53.172;6.598;2023-03-05T12:08:43;8.60;99.90
51853;DHT22;37894;53.172;6.598;2023-03-05T12:11:40;8.40;99.90
51853;DHT22;37894;53.172;6.598;2023-03-05T12:14:27;8.60;99.90
51853;DHT22;37894;53.172;6.598;2023-03-05T12:17:36;8.40;99.90
51853;DHT22;37894;53.172;6.598;2023-03-05T12:22:40;7.10;99.90
51853;DHT22;37894;53.172;6.598;2023-03-05T12:27:52;7.80;99.90
51853;DHT22;37894;53.172;6.598;2023-03-05T12:33:00;8.10;99.90
51853;DHT22;37894;53.172;6.598;2023-03-05T12:35:31;8.60;99.90
51853;DHT22;37894;53.172;6.598;2023-03-05T12:38:02;7.90;99.90
51853;DHT22;37894;53.172;6.598;2023-03-05T12:40:33;8.00;99.90
51853;DHT22;37894;53.172;6.598;2023-03-05T12:43:01;8.40;99.90
51853;DHT22;37894;53.172;6.598;2023-03-05T12:53:15;8.40;99.90
51853;DHT22;37894;53.172;6.598;2023-03-05T12:58:47;8.70;99.90
51853;DHT22;37894;53.172;6.598;2023-03-05T13:01:33;8.10;99.90
51853;DHT22;37894;53.172;6.598;2023-03-05T13:04:03;7.90;99.90
51853;DHT22;37894;53.172;6.598;2023-03-05T13:06:37;7.90;99.90
51853;DHT22;37894;53.172;6.598;2023-03-05T13:11:41;7.70;99.90
51853;DHT22;37894;53.172;6.598;2023-03-05T13:14:36;7.50;99.90
51853;DHT22;37894;53.172;6.598;2023-03-05T13:19:54;7.90;99.90
51853;DHT22;37894;53.172;6.598;2023-03-05T13:27:33;8.10;99.90
51853;DHT22;37894;53.172;6.598;2023-03-05T13:32:29;8.10;99.90
51853;DHT22;37894;53.172;6.598;2023-03-05T13:34:58;7.90;99.90
51853;DHT22;37894;53.172;6.598;2023-03-05T13:37:26;7.90;99.90
51853;DHT22;37894;53.172;6.598;2023-03-05T13:39:55;7.50;99.90
51853;DHT22;37894;53.172;6.598;2023-03-05T13:42:28;8.40;99.90
51853;DHT22;37894;53.172;6.598;2023-03-05T13:44:59;7.20;99.90
51853;DHT22;37894;53.172;6.598;2023-03-05T13:47:27;7.80;99.90
51853;DHT22;37894;53.172;6.598;2023-03-05T13:50:07;7.80;99.90
51853;DHT22;37894;53.172;6.598;2023-03-05T13:52:35;8.00;99.90
51853;DHT22;37894;53.172;6.598;2023-03-05T13:55:09;8.60;99.90
51853;DHT22;37894;53.172;6.598;2023-03-05T13:57:48;7.70;99.90
51853;DHT22;37894;53.172;6.598;2023-03-05T14:00:35;7.80;99.90
51853;DHT22;37894;53.172;6.598;2023-03-05T14:03:22;7.90;99.90
51853;DHT22;37894;53.172;6.598;2023-03-05T14:05:49;7.00;99.90
51853;DHT22;37894;53.172;6.598;2023-03-05T14:08:21;8.10;99.90
51853;DHT22;37894;53.172;6.598;2023-03-05T14:10:47;8.00;99.90
51853;DHT22;37894;53.172;6.598;2023-03-05T14:13:20;7.90;99.90
51853;DHT22;37894;53.172;6.598;2023-03-05T14:16:05;7.70;99.90
51853;DHT22;37894;53.172;6.598;2023-03-05T14:21:09;8.40;99.90
51853;DHT22;37894;53.172;6.598;2023-03-05T14:23:44;8.40;99.90
51853;DHT22;37894;53.172;6.598;2023-03-05T14:28:57;7.30;99.90
51853;DHT22;37894;53.172;6.598;2023-03-05T14:31:24;7.30;99.90
51853;DHT22;37894;53.172;6.598;2023-03-05T14:33:51;7.90;99.90
51853;DHT22;37894;53.172;6.598;2023-03-05T14:36:23;7.20;99.90
51853;DHT22;37894;53.172;6.598;2023-03-05T14:38:49;7.70;99.90
51853;DHT22;37894;53.172;6.598;2023-03-05T14:41:37;7.20;99.90
51853;DHT22;37894;53.172;6.598;2023-03-05T14:44:10;6.80;99.90
51853;DHT22;37894;53.172;6.598;2023-03-05T14:46:37;6.10;99.90
51853;DHT22;37894;53.172;6.598;2023-03-05T14:51:30;7.00;99.90
51853;DHT22;37894;53.172;6.598;2023-03-05T14:53:56;6.60;99.90
51853;DHT22;37894;53.172;6.598;2023-03-05T14:56:25;7.30;99.90
51853;DHT22;37894;53.172;6.598;2023-03-05T14:58:51;7.10;99.90
51853;DHT22;37894;53.172;6.598;2023-03-05T15:03:44;7.90;99.90
51853;DHT22;37894;53.172;6.598;2023-03-05T15:06:29;6.90;99.90
51853;DHT22;37894;53.172;6.598;2023-03-05T15:08:58;6.80;99.90
51853;DHT22;37894;53.172;6.598;2023-03-05T15:13:50;7.00;99.90
51853;DHT22;37894;53.172;6.598;2023-03-05T15:16:17;6.80;99.90
51853;DHT22;37894;53.172;6.598;2023-03-05T15:18:43;7.50;99.90
51853;DHT22;37894;53.172;6.598;2023-03-05T15:21:09;7.00;99.90
51853;DHT22;37894;53.172;6.598;2023-03-05T15:26:11;7.30;99.90
51853;DHT22;37894;53.172;6.598;2023-03-05T15:28:38;6.80;99.90
51853;DHT22;37894;53.172;6.598;2023-03-05T15:31:04;7.00;99.90
51853;DHT22;37894;53.172;6.598;2023-03-05T15:33:31;6.40;99.90
51853;DHT22;37894;53.172;6.598;2023-03-05T15:35:57;6.60;99.90
51853;DHT22;37894;53.172;6.598;2023-03-05T15:38:24;6.50;99.90
51853;DHT22;37894;53.172;6.598;2023-03-05T15:40:51;6.10;99.90
51853;DHT22;37894;53.172;6.598;2023-03-05T15:43:18;6.50;99.90
51853;DHT22;37894;53.172;6.598;2023-03-05T15:45:44;6.60;99.90
51853;DHT22;37894;53.172;6.598;2023-03-05T15:48:10;6.90;99.90
51853;DHT22;37894;53.172;6.598;2023-03-05T15:50:38;6.40;99.90
51853;DHT22;37894;53.172;6.598;2023-03-05T15:53:05;6.40;99.90
51853;DHT22;37894;53.172;6.598;2023-03-05T15:55:39;6.30;99.90
51853;DHT22;37894;53.172;6.598;2023-03-05T16:00:33;6.30;99.90
51853;DHT22;37894;53.172;6.598;2023-03-05T16:05:25;6.00;99.90
51853;DHT22;37894;53.172;6.598;2023-03-05T16:07:52;5.80;99.90
51853;DHT22;37894;53.172;6.598;2023-03-05T16:10:23;6.30;99.90
51853;DHT22;37894;53.172;6.598;2023-03-05T16:12:53;5.90;99.90
51853;DHT22;37894;53.172;6.598;2023-03-05T16:15:20;6.00;99.90
51853;DHT22;37894;53.172;6.598;2023-03-05T16:17:49;5.70;99.90
51853;DHT22;37894;53.172;6.598;2023-03-05T16:20:16;5.90;99.90
51853;DHT22;37894;53.172;6.598;2023-03-05T16:22:42;5.70;99.90
51853;DHT22;37894;53.172;6.598;2023-03-05T16:25:08;5.80;99.90
51853;DHT22;37894;53.172;6.598;2023-03-05T16:30:00;5.80;99.90
51853;DHT22;37894;53.172;6.598;2023-03-05T16:32:26;5.90;99.90
51853;DHT22;37894;53.172;6.598;2023-03-05T16:37:20;5.70;99.90
51853;DHT22;37894;53.172;6.598;2023-03-05T16:39:47;5.20;99.90
51853;DHT22;37894;53.172;6.598;2023-03-05T16:42:13;6.00;99.90
51853;DHT22;37894;53.172;6.598;2023-03-05T16:44:40;5.90;99.90
51853;DHT22;37894;53.172;6.598;2023-03-05T16:49:35;5.70;99.90
51853;DHT22;37894;53.172;6.598;2023-03-05T16:52:01;5.40;99.90
51853;DHT22;37894;53.172;6.598;2023-03-05T16:54:29;5.30;99.90
51853;DHT22;37894;53.172;6.598;2023-03-05T16:59:23;5.40;99.90
51853;DHT22;37894;53.172;6.598;2023-03-05T17:04:15;5.20;99.90
51853;DHT22;37894;53.172;6.598;2023-03-05T17:06:44;5.20;99.90
51853;DHT22;37894;53.172;6.598;2023-03-05T17:09:10;5.10;99.90
51853;DHT22;37894;53.172;6.598;2023-03-05T17:11:35;5.00;99.90
51853;DHT22;37894;53.172;6.598;2023-03-05T17:14:01;4.90;99.90
51853;DHT22;37894;53.172;6.598;2023-03-05T17:16:28;5.70;99.90
51853;DHT22;37894;53.172;6.598;2023-03-05T17:18:54;4.70;99.90
51853;DHT22;37894;53.172;6.598;2023-03-05T17:26:15;4.70;99.90
51853;DHT22;37894;53.172;6.598;2023-03-05T17:28:42;4.70;99.90
51853;DHT22;37894;53.172;6.598;2023-03-05T17:31:08;4.70;99.90
51853;DHT22;37894;53.172;6.598;2023-03-05T17:33:34;4.50;99.90
51853;DHT22;37894;53.172;6.598;2023-03-05T17:38:27;7.70;99.90
51853;DHT22;37894;53.172;6.598;2023-03-05T17:40:53;4.00;99.90
51853;DHT22;37894;53.172;6.598;2023-03-05T17:45:45;4.20;99.90
51853;DHT22;37894;53.172;6.598;2023-03-05T17:48:12;4.30;99.90
51853;DHT22;37894;53.172;6.598;2023-03-05T17:50:38;4.50;99.90
51853;DHT22;37894;53.172;6.598;2023-03-05T17:53:04;5.30;99.90
51853;DHT22;37894;53.172;6.598;2023-03-05T17:55:30;5.20;99.90
51853;DHT22;37894;53.172;6.598;2023-03-05T17:57:56;4.30;99.90
51853;DHT22;37894;53.172;6.598;2023-03-05T18:00:24;3.20;99.90
51853;DHT22;37894;53.172;6.598;2023-03-05T18:02:50;4.30;99.90
51853;DHT22;37894;53.172;6.598;2023-03-05T18:05:18;4.00;99.90
51853;DHT22;37894;53.172;6.598;2023-03-05T18:10:11;4.40;99.90
51853;DHT22;37894;53.172;6.598;2023-03-05T18:12:37;4.10;99.90
51853;DHT22;37894;53.172;6.598;2023-03-05T18:15:04;4.00;99.90
51853;DHT22;37894;53.172;6.598;2023-03-05T18:17:30;4.00;99.90
51853;DHT22;37894;53.172;6.598;2023-03-05T18:22:22;4.10;99.90
51853;DHT22;37894;53.172;6.598;2023-03-05T18:29:40;3.70;99.90
51853;DHT22;37894;53.172;6.598;2023-03-05T18:32:06;3.70;99.90
51853;DHT22;37894;53.172;6.598;2023-03-05T18:34:31;3.80;99.90
51853;DHT22;37894;53.172;6.598;2023-03-05T18:39:26;3.80;99.90
51853;DHT22;37894;53.172;6.598;2023-03-05T18:41:54;3.60;99.90
51853;DHT22;37894;53.172;6.598;2023-03-05T18:44:20;3.40;99.90
51853;DHT22;37894;53.172;6.598;2023-03-05T18:46:46;3.80;99.90
51853;DHT22;37894;53.172;6.598;2023-03-05T18:49:12;3.70;99.90
51853;DHT22;37894;53.172;6.598;2023-03-05T18:51:40;3.50;99.90
51853;DHT22;37894;53.172;6.598;2023-03-05T18:54:06;3.70;99.90
51853;DHT22;37894;53.172;6.598;2023-03-05T18:56:32;3.00;99.90
51853;DHT22;37894;53.172;6.598;2023-03-05T18:58:58;3.30;99.90
51853;DHT22;37894;53.172;6.598;2023-03-05T19:03:50;3.80;99.90
51853;DHT22;37894;53.172;6.598;2023-03-05T19:06:17;3.40;99.90
51853;DHT22;37894;53.172;6.598;2023-03-05T19:08:44;3.50;99.90
51853;DHT22;37894;53.172;6.598;2023-03-05T19:11:15;4.30;99.90
51853;DHT22;37894;53.172;6.598;2023-03-05T19:13:42;3.30;99.90
51853;DHT22;37894;53.172;6.598;2023-03-05T19:16:19;3.30;99.90
51853;DHT22;37894;53.172;6.598;2023-03-05T19:18:54;3.20;99.90
51853;DHT22;37894;53.172;6.598;2023-03-05T19:21:54;3.10;99.90
51853;DHT22;37894;53.172;6.598;2023-03-05T19:24:22;3.10;99.90
51853;DHT22;37894;53.172;6.598;2023-03-05T19:29:23;2.80;99.90
51853;DHT22;37894;53.172;6.598;2023-03-05T19:31:50;2.90;99.90
51853;DHT22;37894;53.172;6.598;2023-03-05T19:34:16;3.00;99.90
51853;DHT22;37894;53.172;6.598;2023-03-05T19:39:09;3.00;99.90
51853;DHT22;37894;53.172;6.598;2023-03-05T19:41:35;2.80;99.90